Time;durP1;ratioP1;P1;durP2;ratioP2;P2;SDS_P1;SDS_P2;PMS_P1;PMS_P2;Temp;Humidity;BMP_temperature;BMP_pressure;BME280_temperature;BME280_humidity;BME280_pressure;Samples;Min_cycle;Max_cycle;Signal;HPM_P1;HPM_P2
2023/07/21 00:02:25;;;;;;;5.60;3.80;;;;;;;12.49;89.34;100110.23;104101;278;105939;-55
2023/07/21 00:05:00;;;;;;;6.60;3.70;;;;;;;12.46;89.18;100105.83;104117;278;113452;-55
2023/07/21 00:07:35;;;;;;;4.40;3.70;;;;;;;12.44;89.34;100106.61;104098;278;97116;-55
2023/07/21 00:10:12;;;;;;;5.80;3.90;;;;;;;12.41;89.20;100103.94;104554;278;98070;-53
2023/07/21 00:12:48;;;;;;;5.40;3.70;;;;;;;12.39;89.23;100100.89;104583;278;121016;-53
2023/07/21 00:15:25;;;;;;;5.80;4.00;;;;;;;12.34;89.34;100104.77;104039;278;105533;-53
2023/07/21 00:17:59;;;;;;;6.30;3.60;;;;;;;12.31;89.35;100108.98;104103;278;113884;-53
2023/07/21 00:20:33;;;;;;;4.60;3.70;;;;;;;12.24;89.32;100106.81;104132;278;95420;-53
2023/07/21 00:23:06;;;;;;;6.70;3.80;;;;;;;12.22;89.39;100103.38;104100;278;97389;-53
2023/07/21 00:25:40;;;;;;;4.10;3.40;;;;;;;12.21;89.35;100102.68;104115;278;119894;-53
2023/07/21 00:28:14;;;;;;;5.10;4.20;;;;;;;12.18;89.32;100099.02;104135;278;105946;-53
2023/07/21 00:30:48;;;;;;;6.30;3.80;;;;;;;12.12;89.37;100100.55;104079;278;114832;-55
2023/07/21 00:33:25;;;;;;;5.00;3.60;;;;;;;12.07;89.60;100103.20;104087;271;96330;-55
2023/07/21 00:35:59;;;;;;;6.60;3.80;;;;;;;12.05;89.60;100106.20;104570;278;97474;-55
2023/07/21 00:38:33;;;;;;;4.30;3.90;;;;;;;12.04;89.53;100094.67;104102;278;120669;-55
2023/07/21 00:41:09;;;;;;;4.50;3.70;;;;;;;12.04;89.67;100093.34;104121;275;105409;-53
2023/07/21 00:43:43;;;;;;;4.30;3.60;;;;;;;12.06;89.72;100090.26;104537;278;114254;-53
2023/07/21 00:46:17;;;;;;;6.20;3.60;;;;;;;12.05;89.69;100092.88;103924;278;94840;-55
2023/07/21 00:48:50;;;;;;;;;;;;;;;12.05;89.85;100095.17;104148;278;97634;-55
2023/07/21 00:51:24;;;;;;;5.70;4.40;;;;;;;12.07;89.89;100091.67;104105;278;120131;-55
2023/07/21 00:54:00;;;;;;;3.90;3.50;;;;;;;12.07;89.87;100093.08;104105;278;105295;-55
2023/07/21 00:56:34;;;;;;;5.20;3.80;;;;;;;12.11;90.08;100085.56;104088;278;113282;-53
2023/07/21 00:59:09;;;;;;;4.10;3.60;;;;;;;12.10;89.97;100084.30;104539;278;95651;-53
2023/07/21 01:01:43;;;;;;;4.50;3.20;;;;;;;12.10;90.13;100081.05;104136;278;97748;-53
2023/07/21 01:04:17;;;;;;;4.40;3.50;;;;;;;12.10;90.09;100079.69;104091;278;120557;-53
2023/07/21 01:06:52;;;;;;;6.00;3.40;;;;;;;12.11;89.94;100081.42;104582;279;104716;-53
2023/07/21 01:09:26;;;;;;;5.20;3.50;;;;;;;12.06;89.94;100078.46;104108;278;114987;-53
2023/07/21 01:12:00;;;;;;;3.90;3.10;;;;;;;12.04;89.91;100078.30;104112;278;95318;-57
2023/07/21 01:14:35;;;;;;;3.80;3.50;;;;;;;12.03;89.93;100078.16;104148;278;97971;-57
2023/07/21 01:17:11;;;;;;;3.60;3.20;;;;;;;11.99;89.91;100084.00;104119;278;120769;-55
2023/07/21 01:19:48;;;;;;;3.40;3.00;;;;;;;11.93;89.91;100083.20;104569;278;104213;-56
2023/07/21 01:22:31;;;;;;;4.00;3.30;;;;;;;11.89;89.82;100082.81;104099;278;112552;-57
2023/07/21 01:25:13;;;;;;;4.60;3.40;;;;;;;11.87;89.89;100083.09;104121;278;96536;-55
2023/07/21 01:27:51;;;;;;;5.50;3.50;;;;;;;11.85;89.90;100084.27;104129;278;97089;-55
2023/07/21 01:30:27;;;;;;;3.80;3.40;;;;;;;11.86;90.18;100085.77;104580;278;121014;-55
2023/07/21 01:33:02;;;;;;;4.60;3.30;;;;;;;11.86;90.19;100088.27;104121;278;105252;-55
2023/07/21 01:35:38;;;;;;;5.10;3.50;;;;;;;11.89;90.25;100086.56;104100;278;114961;-55
2023/07/21 01:38:14;;;;;;;8.10;3.70;;;;;;;11.91;90.27;100087.77;104061;278;96498;-55
2023/07/21 01:40:49;;;;;;;7.10;4.00;;;;;;;11.88;90.16;100089.94;104136;278;95434;-55
2023/07/21 01:43:24;;;;;;;5.10;3.80;;;;;;;11.88;90.23;100092.35;104086;278;120603;-55
2023/07/21 01:45:56;;;;;;;;;;;;;;;11.86;90.14;100090.05;104125;278;105348;-57
2023/07/21 01:48:30;;;;;;;5.60;4.70;;;;;;;11.81;90.31;100090.88;104073;278;114889;-57
2023/07/21 01:51:06;;;;;;;6.00;4.70;;;;;;;11.77;90.12;100090.48;104125;278;96737;-55
2023/07/21 01:53:45;;;;;;;5.60;4.40;;;;;;;11.76;90.10;100093.48;104558;278;97780;-55
2023/07/21 01:56:28;;;;;;;4.80;4.40;;;;;;;11.74;90.13;100095.77;103943;279;119673;-55
2023/07/21 01:59:06;;;;;;;4.70;3.90;;;;;;;11.70;90.08;100100.49;104556;278;104533;-55
2023/07/21 02:01:41;;;;;;;4.30;3.70;;;;;;;11.66;89.93;100103.24;104118;278;113923;-57
2023/07/21 02:04:17;;;;;;;4.50;3.70;;;;;;;11.63;90.19;100104.54;104084;278;94755;-57
2023/07/21 02:06:52;;;;;;;4.40;3.90;;;;;;;11.63;90.45;100107.95;104124;278;96344;-57
2023/07/21 02:09:26;;;;;;;5.70;4.00;;;;;;;11.65;90.54;100108.56;104106;278;121117;-57
2023/07/21 02:12:00;;;;;;;4.50;3.90;;;;;;;11.66;90.47;100110.79;104567;278;105811;-55
2023/07/21 02:14:34;;;;;;;4.80;3.60;;;;;;;11.69;90.58;100108.95;104077;278;113915;-55
2023/07/21 02:17:08;;;;;;;;;;;;;;;11.71;90.88;100106.09;104541;278;97007;-55
2023/07/21 02:19:42;;;;;;;4.60;4.20;;;;;;;11.72;90.87;100110.20;104037;278;96912;-55
2023/07/21 02:22:16;;;;;;;6.60;4.40;;;;;;;11.75;90.92;100106.19;104081;278;120788;-57
2023/07/21 02:24:50;;;;;;;5.20;4.10;;;;;;;11.77;90.98;100103.40;104081;278;105050;-56
2023/07/21 02:27:24;;;;;;;5.50;4.10;;;;;;;11.79;90.98;100103.23;104087;278;115480;-57
2023/07/21 02:29:58;;;;;;;6.40;4.80;;;;;;;11.81;90.94;100101.95;104098;278;96530;-55
2023/07/21 02:32:32;;;;;;;4.60;4.20;;;;;;;11.83;90.98;100105.91;104572;278;97834;-55
2023/07/21 02:35:07;;;;;;;5.30;4.10;;;;;;;11.82;90.72;100109.58;104549;274;120282;-54
2023/07/21 02:37:41;;;;;;;4.70;4.20;;;;;;;11.79;90.79;100112.45;104540;278;105728;-55
2023/07/21 02:40:17;;;;;;;4.50;4.10;;;;;;;11.76;90.61;100109.09;104566;278;114228;-56
2023/07/21 02:42:52;;;;;;;5.30;4.40;;;;;;;11.72;90.66;100118.61;104080;278;96201;-56
2023/07/21 02:45:26;;;;;;;4.30;3.70;;;;;;;11.70;90.71;100115.79;104119;278;98791;-57
2023/07/21 02:48:00;;;;;;;4.70;4.10;;;;;;;11.69;90.79;100119.74;104135;278;120187;-58
2023/07/21 02:50:34;;;;;;;5.30;3.70;;;;;;;11.71;90.93;100116.45;104125;278;106374;-58
2023/07/21 02:53:08;;;;;;;5.00;3.90;;;;;;;11.74;90.88;100116.74;104109;277;114467;-58
2023/07/21 02:55:44;;;;;;;3.90;3.60;;;;;;;11.77;90.75;100116.09;104098;277;96413;-56
2023/07/21 02:58:20;;;;;;;4.30;3.90;;;;;;;11.79;90.89;100114.22;104127;278;96474;-56
2023/07/21 03:00:55;;;;;;;4.50;4.10;;;;;;;11.83;90.83;100113.02;104570;279;120955;-58
2023/07/21 03:03:29;;;;;;;6.00;4.20;;;;;;;11.85;90.74;100114.41;104572;278;106143;-58
2023/07/21 03:06:04;;;;;;;5.30;4.00;;;;;;;11.84;90.55;100111.82;104116;278;113878;-55
2023/07/21 03:08:39;;;;;;;5.80;4.40;;;;;;;11.86;90.60;100107.46;104513;278;95468;-55
2023/07/21 03:11:14;;;;;;;5.20;4.50;;;;;;;11.84;90.71;100103.45;104576;277;96520;-55
2023/07/21 03:13:47;;;;;;;6.50;4.40;;;;;;;11.85;90.63;100106.08;103965;278;123682;-55
2023/07/21 03:16:21;;;;;;;4.60;4.10;;;;;;;11.85;90.75;100105.34;104753;277;105770;-57
2023/07/21 03:18:55;;;;;;;5.00;4.50;;;;;;;11.88;90.90;100101.34;104308;277;113339;-57
2023/07/21 03:21:29;;;;;;;4.90;4.40;;;;;;;11.91;91.10;100097.86;104314;277;96866;-54
2023/07/21 03:24:03;;;;;;;4.50;4.10;;;;;;;11.97;91.08;100103.52;104318;277;96352;-54
2023/07/21 03:26:37;;;;;;;4.10;3.60;;;;;;;12.02;91.18;100110.03;104334;277;120218;-56
2023/07/21 03:29:11;;;;;;;5.30;4.00;;;;;;;12.07;91.11;100113.00;104315;277;105385;-56
2023/07/21 03:31:45;;;;;;;4.40;4.00;;;;;;;12.14;91.16;100116.00;104364;277;113667;-57
2023/07/21 03:34:21;;;;;;;6.10;4.20;;;;;;;12.22;91.05;100113.85;104343;277;95171;-58
2023/07/21 03:36:55;;;;;;;5.10;4.20;;;;;;;12.27;90.97;100109.73;104837;277;97670;-56
2023/07/21 03:39:28;;;;;;;5.30;4.50;;;;;;;12.32;91.15;100111.77;104350;277;120687;-56
2023/07/21 03:42:02;;;;;;;5.00;4.20;;;;;;;12.38;91.10;100102.36;104809;277;105999;-55
2023/07/21 03:44:37;;;;;;;4.30;3.90;;;;;;;12.51;91.00;100105.56;104808;277;115333;-55
2023/07/21 03:47:12;;;;;;;5.40;4.40;;;;;;;13.34;90.51;100102.55;104275;277;96548;-54
2023/07/21 03:49:47;;;;;;;3.80;3.50;;;;;;;15.14;89.13;100102.45;104320;277;98783;-54
2023/07/21 03:52:19;;;;;;;;;;;;;;;16.24;88.23;100098.02;104787;277;120273;-54
2023/07/21 03:54:53;;;;;;;3.50;3.20;;;;;;;17.39;86.71;100098.30;104179;277;104434;-56
2023/07/21 03:57:27;;;;;;;3.60;3.20;;;;;;;18.47;85.33;100097.37;104280;277;114096;-56
2023/07/21 04:00:02;;;;;;;3.60;3.10;;;;;;;19.41;83.44;100096.62;104290;277;94668;-55
2023/07/21 04:02:36;;;;;;;3.20;2.90;;;;;;;20.18;81.50;100095.33;104336;277;95815;-55
2023/07/21 04:05:11;;;;;;;4.50;3.00;;;;;;;20.85;80.12;100094.52;104355;277;118867;-58
2023/07/21 04:07:45;;;;;;;4.80;3.40;;;;;;;21.49;78.30;100093.14;104363;277;106316;-57
2023/07/21 04:10:19;;;;;;;3.30;2.90;;;;;;;22.05;76.62;100094.63;104817;277;113597;-55
2023/07/21 04:12:54;;;;;;;3.80;3.40;;;;;;;22.21;74.41;100095.98;104796;277;94584;-55
2023/07/21 04:15:28;;;;;;;5.10;3.30;;;;;;;21.49;74.16;100093.96;104358;277;97691;-55
2023/07/21 04:18:00;;;;;;;;;;;;;;;20.47;74.56;100097.59;104328;277;120789;-55
2023/07/21 04:20:35;;;;;;;3.50;3.20;;;;;;;19.77;74.88;100100.30;104352;277;106136;-57
2023/07/21 04:23:09;;;;;;;4.90;3.80;;;;;;;19.10;75.38;100097.38;104813;277;112990;-57
2023/07/21 04:25:43;;;;;;;7.20;4.50;;;;;;;19.02;75.59;100099.94;104335;277;94875;-56
2023/07/21 04:28:17;;;;;;;4.10;3.70;;;;;;;19.86;75.45;100102.00;104360;281;96759;-56
2023/07/21 04:30:56;;;;;;;4.30;3.80;;;;;;;21.12;74.17;100097.81;104777;277;119183;-56
2023/07/21 04:33:30;;;;;;;4.20;3.70;;;;;;;21.72;72.85;100100.00;104315;277;104732;-57
2023/07/21 04:36:04;;;;;;;3.40;3.10;;;;;;;21.45;72.86;100100.10;104318;277;114290;-54
2023/07/21 04:38:39;;;;;;;3.70;3.20;;;;;;;20.65;72.68;100106.52;104308;276;94722;-53
2023/07/21 04:41:12;;;;;;;;;;;;;;;19.83;73.18;100106.67;104822;277;97892;-55
2023/07/21 04:43:46;;;;;;;4.30;3.50;;;;;;;19.48;73.15;100105.53;104301;277;121701;-55
2023/07/21 04:46:20;;;;;;;3.80;3.10;;;;;;;19.04;73.41;100102.70;104319;277;104178;-55
2023/07/21 04:48:55;;;;;;;3.70;3.30;;;;;;;18.70;73.76;100106.67;104737;277;114222;-55
2023/07/21 04:51:30;;;;;;;4.10;3.50;;;;;;;18.51;74.45;100107.11;104286;273;93359;-53
2023/07/21 04:54:03;;;;;;;3.80;3.20;;;;;;;18.31;75.08;100106.81;104781;277;98068;-53
2023/07/21 04:56:37;;;;;;;4.50;3.30;;;;;;;18.32;75.57;100108.23;104781;277;121710;-53
2023/07/21 04:59:11;;;;;;;3.40;2.90;;;;;;;18.77;75.36;100107.00;104299;277;104240;-53
2023/07/21 05:01:45;;;;;;;4.10;3.20;;;;;;;20.31;74.91;100105.08;104368;277;113836;-57
2023/07/21 05:04:19;;;;;;;3.80;3.10;;;;;;;22.32;72.97;100102.63;104344;277;92913;-57
2023/07/21 05:06:53;;;;;;;3.40;2.70;;;;;;;23.97;71.18;100107.98;104327;277;96602;-53
2023/07/21 05:09:26;;;;;;;;;;;;;;;25.11;69.04;100102.56;104322;277;120743;-53
2023/07/21 05:11:59;;;;;;;2.80;2.50;;;;;;;25.77;67.61;100099.51;104300;277;104424;-56
2023/07/21 05:14:33;;;;;;;3.40;2.60;;;;;;;26.58;65.36;100102.52;104290;277;114685;-56
2023/07/21 05:17:08;;;;;;;3.40;2.90;;;;;;;27.09;63.80;100104.96;104293;277;94361;-58
2023/07/21 05:19:42;;;;;;;2.90;2.40;;;;;;;27.67;61.84;100105.23;103927;277;98450;-56
2023/07/21 05:22:16;;;;;;;3.00;2.20;;;;;;;28.14;60.28;100104.84;104283;277;121283;-54
2023/07/21 05:24:53;;;;;;;4.00;2.50;;;;;;;28.71;59.39;100104.39;104299;276;103303;-54
2023/07/21 05:27:27;;;;;;;3.90;2.80;;;;;;;29.01;58.22;100102.80;104299;277;114482;-53
2023/07/21 05:30:01;;;;;;;3.70;2.20;;;;;;;29.24;56.38;100104.52;104281;277;93816;-58
2023/07/21 05:32:35;;;;;;;2.70;2.00;;;;;;;29.61;55.13;100107.10;104787;277;96789;-58
2023/07/21 05:35:10;;;;;;;6.50;2.50;;;;;;;29.89;54.42;100106.02;104315;276;119186;-54
2023/07/21 05:37:44;;;;;;;4.10;2.50;;;;;;;30.21;53.55;100109.46;104724;277;105666;-54
2023/07/21 05:40:18;;;;;;;3.90;2.20;;;;;;;30.45;52.55;100104.74;104280;277;113166;-58
2023/07/21 05:42:52;;;;;;;2.50;1.90;;;;;;;30.33;51.43;100107.13;104778;277;94295;-58
2023/07/21 05:45:26;;;;;;;3.80;2.00;;;;;;;30.48;51.12;100107.73;104365;277;97696;-56
2023/07/21 05:48:00;;;;;;;2.50;1.80;;;;;;;30.65;50.53;100106.14;104294;276;121228;-56
2023/07/21 05:50:38;;;;;;;3.30;2.00;;;;;;;30.75;49.29;100106.38;104331;277;106075;-56
2023/07/21 05:53:14;;;;;;;2.60;1.60;;;;;;;31.08;48.92;100101.95;104751;276;114995;-56
2023/07/21 05:55:48;;;;;;;3.90;1.70;;;;;;;31.07;48.35;100101.73;104336;276;94321;-58
2023/07/21 05:58:22;;;;;;;5.00;2.20;;;;;;;31.29;48.19;100101.61;104795;277;96633;-58
2023/07/21 06:00:57;;;;;;;3.20;1.70;;;;;;;31.70;47.75;100098.22;104341;276;121634;-57
2023/07/21 06:03:31;;;;;;;3.60;1.80;;;;;;;31.82;46.84;100090.02;104331;277;106180;-57
2023/07/21 06:06:05;;;;;;;1.90;1.50;;;;;;;32.18;46.34;100091.95;104272;276;114663;-60
2023/07/21 06:08:40;;;;;;;2.40;1.90;;;;;;;32.10;45.44;100094.77;104316;277;92798;-60
2023/07/21 06:11:14;;;;;;;2.00;1.60;;;;;;;32.51;45.11;100095.86;104325;277;98189;-61
2023/07/21 06:13:48;;;;;;;2.00;1.80;;;;;;;32.55;44.12;100098.73;104143;277;120648;-60
2023/07/21 06:16:24;;;;;;;3.20;2.00;;;;;;;32.12;44.03;100100.77;104312;277;105510;-60
2023/07/21 06:19:00;;;;;;;4.30;3.00;;;;;;;32.70;44.45;100107.80;104333;277;113840;-61
2023/07/21 06:21:35;;;;;;;3.20;1.90;;;;;;;32.05;43.64;100102.65;104326;276;94545;-62
2023/07/21 06:24:09;;;;;;;2.50;1.70;;;;;;;30.84;44.70;100103.73;104116;278;96468;-62
2023/07/21 06:26:45;;;;;;;2.30;1.70;;;;;;;31.27;44.81;100101.48;104089;278;120045;-60
2023/07/21 06:29:20;;;;;;;2.40;1.40;;;;;;;30.96;44.22;100101.50;104094;278;105446;-60
2023/07/21 06:31:54;;;;;;;1.90;1.50;;;;;;;31.14;45.06;100096.46;104083;278;113885;-60
2023/07/21 06:34:29;;;;;;;2.80;1.70;;;;;;;31.94;44.55;100093.15;104506;278;94731;-59
2023/07/21 06:37:04;;;;;;;2.30;1.50;;;;;;;32.78;43.23;100096.89;104126;278;96292;-54
2023/07/21 06:39:41;;;;;;;2.20;1.60;;;;;;;33.77;42.33;100094.61;104085;278;119801;-54
2023/07/21 06:42:15;;;;;;;3.90;1.50;;;;;;;34.34;41.24;100094.04;104549;278;104585;-54
2023/07/21 06:44:50;;;;;;;2.70;1.50;;;;;;;34.70;40.55;100093.60;103936;279;114701;-54
2023/07/21 06:47:24;;;;;;;3.80;1.80;;;;;;;35.00;39.66;100092.21;104080;278;94194;-55
2023/07/21 06:49:58;;;;;;;3.60;1.50;;;;;;;35.39;38.33;100092.80;104116;278;95729;-54
2023/07/21 06:52:32;;;;;;;1.70;1.40;;;;;;;35.47;38.54;100094.12;104122;278;119460;-54
2023/07/21 06:55:07;;;;;;;3.40;2.00;;;;;;;35.77;37.81;100093.77;104095;278;105848;-56
2023/07/21 06:57:41;;;;;;;2.50;1.60;;;;;;;35.69;36.86;100092.84;104068;278;112820;-56
2023/07/21 07:00:18;;;;;;;3.40;2.00;;;;;;;35.90;37.05;100092.21;104063;278;94242;-56
2023/07/21 07:02:52;;;;;;;1.80;1.50;;;;;;;36.08;35.77;100090.31;104098;278;97744;-56
2023/07/21 07:05:26;;;;;;;2.10;1.30;;;;;;;36.38;35.55;100089.15;104112;278;120819;-59
2023/07/21 07:08:00;;;;;;;2.40;1.80;;;;;;;36.70;35.26;100090.24;104108;278;104608;-59
2023/07/21 07:10:34;;;;;;;4.00;1.70;;;;;;;36.81;34.72;100090.15;104104;278;114743;-54
2023/07/21 07:13:09;;;;;;;2.20;1.20;;;;;;;37.09;34.13;100092.74;104083;278;93004;-54
2023/07/21 07:15:48;;;;;;;1.60;1.20;;;;;;;36.99;33.66;100088.60;104135;278;97550;-57
2023/07/21 07:18:22;;;;;;;2.60;1.20;;;;;;;36.63;33.65;100087.20;104117;278;121284;-57
2023/07/21 07:20:57;;;;;;;2.50;1.30;;;;;;;36.72;34.07;100090.55;104129;278;105505;-57
2023/07/21 07:23:31;;;;;;;1.60;1.20;;;;;;;37.15;32.95;100093.42;104247;277;114269;-57
2023/07/21 07:26:05;;;;;;;2.10;1.30;;;;;;;37.16;32.34;100092.06;104289;277;94226;-56
2023/07/21 07:28:39;;;;;;;2.50;1.20;;;;;;;37.10;32.45;100091.00;104326;277;96957;-56
2023/07/21 07:31:14;;;;;;;3.20;1.80;;;;;;;37.20;32.36;100088.28;104324;277;121242;-56
2023/07/21 07:33:48;;;;;;;2.00;1.20;;;;;;;37.40;32.20;100088.64;104776;277;104853;-56
2023/07/21 07:36:22;;;;;;;2.20;1.20;;;;;;;37.59;32.08;100089.55;104815;277;113952;-58
2023/07/21 07:38:55;;;;;;;2.60;1.40;;;;;;;37.49;31.73;100088.16;104309;277;94580;-58
2023/07/21 07:41:30;;;;;;;2.20;1.40;;;;;;;37.50;31.63;100085.27;104329;277;97980;-56
2023/07/21 07:44:04;;;;;;;2.50;1.20;;;;;;;37.85;31.71;100089.75;104323;277;120652;-55
2023/07/21 07:46:38;;;;;;;2.50;1.00;;;;;;;37.94;30.83;100089.09;104799;277;104346;-53
2023/07/21 07:49:12;;;;;;;1.10;0.90;;;;;;;38.10;30.93;100089.48;104754;277;114075;-54
2023/07/21 07:51:46;;;;;;;1.30;1.20;;;;;;;37.91;30.30;100091.11;104320;277;94298;-56
2023/07/21 07:54:20;;;;;;;3.30;0.90;;;;;;;37.63;29.56;100094.30;104781;277;99219;-56
2023/07/21 07:56:54;;;;;;;1.30;1.20;;;;;;;37.54;30.00;100095.34;104808;277;120942;-54
2023/07/21 07:59:28;;;;;;;1.80;1.00;;;;;;;37.63;29.72;100087.67;104818;277;104015;-54
2023/07/21 08:02:02;;;;;;;2.30;0.90;;;;;;;37.49;29.61;100090.42;104784;277;114958;-56
2023/07/21 08:04:37;;;;;;;1.50;0.80;;;;;;;35.62;29.60;100089.52;104334;277;94563;-56
2023/07/21 08:07:11;;;;;;;1.90;1.00;;;;;;;33.23;31.51;100098.80;104329;277;96359;-54
2023/07/21 08:09:45;;;;;;;1.60;1.10;;;;;;;31.62;33.23;100098.91;104316;277;120366;-56
2023/07/21 08:12:19;;;;;;;2.70;1.30;;;;;;;30.34;34.73;100104.20;104760;277;105323;-56
2023/07/21 08:14:55;;;;;;;2.00;1.10;;;;;;;29.40;36.48;100105.36;104318;277;113448;-55
2023/07/21 08:17:29;;;;;;;1.90;1.10;;;;;;;29.93;37.32;100102.10;104283;277;93047;-55
2023/07/21 08:20:05;;;;;;;1.60;1.00;;;;;;;29.38;37.47;100103.94;104775;277;98475;-54
2023/07/21 08:22:40;;;;;;;2.20;1.20;;;;;;;29.61;38.12;100095.59;104307;277;120552;-54
2023/07/21 08:25:15;;;;;;;3.90;1.20;;;;;;;29.81;37.54;100101.02;104103;278;106830;-59
2023/07/21 08:27:54;;;;;;;1.80;1.10;;;;;;;28.86;38.02;100107.66;104336;277;115002;-58
2023/07/21 08:30:30;;;;;;;1.90;1.10;;;;;;;28.03;38.52;100103.20;104318;277;93731;-55
2023/07/21 08:33:05;;;;;;;1.90;1.10;;;;;;;27.50;39.15;100096.11;104332;277;96480;-54
2023/07/21 08:35:39;;;;;;;1.30;1.10;;;;;;;27.23;39.88;100096.51;104319;277;119105;-57
2023/07/21 08:38:14;;;;;;;2.70;1.20;;;;;;;26.98;40.34;100099.80;104290;277;104631;-57
2023/07/21 08:40:50;;;;;;;2.30;1.20;;;;;;;26.79;40.77;100104.28;104732;277;114290;-54
2023/07/21 08:43:25;;;;;;;2.10;1.20;;;;;;;26.99;41.63;100102.21;104745;277;93873;-55
2023/07/21 08:46:02;;;;;;;2.40;1.30;;;;;;;27.08;41.32;100098.28;104312;277;97693;-57
2023/07/21 08:48:37;;;;;;;1.20;1.00;;;;;;;26.86;41.10;100097.56;104312;277;120094;-57
2023/07/21 08:51:13;;;;;;;3.20;1.20;;;;;;;26.66;41.20;100098.23;104326;277;105117;-56
2023/07/21 08:53:49;;;;;;;2.10;1.00;;;;;;;26.44;41.23;100103.73;104154;277;113794;-57
2023/07/21 08:56:25;;;;;;;2.30;1.10;;;;;;;26.42;42.07;100102.27;104314;277;94892;-58
2023/07/21 08:59:01;;;;;;;4.20;1.10;;;;;;;27.27;42.51;100097.40;104754;277;98093;-53
2023/07/21 09:01:35;;;;;;;1.60;1.10;;;;;;;28.80;40.95;100097.18;104293;277;119528;-55
2023/07/21 09:04:20;;;;;;;1.60;1.00;;;;;;;29.97;40.21;100089.42;104320;277;105512;-55
2023/07/21 09:07:00;;;;;;;2.20;1.10;;;;;;;30.50;37.61;100090.38;104304;277;112912;-53
2023/07/21 09:09:36;;;;;;;2.70;1.10;;;;;;;30.46;37.26;100088.48;104313;277;93387;-57
2023/07/21 09:12:12;;;;;;;1.60;1.00;;;;;;;30.31;37.44;100094.50;104303;277;97282;-55
2023/07/21 09:14:49;;;;;;;1.50;1.00;;;;;;;29.83;36.44;100100.08;104312;277;119798;-57
2023/07/21 09:17:25;;;;;;;2.40;0.90;;;;;;;28.98;36.48;100101.26;104325;277;105067;-57
2023/07/21 09:19:59;;;;;;;2.20;0.90;;;;;;;28.26;37.80;100105.46;104319;277;114335;-55
2023/07/21 09:22:33;;;;;;;1.40;0.90;;;;;;;27.70;38.02;100102.02;104281;277;93693;-55
2023/07/21 09:25:09;;;;;;;2.20;1.10;;;;;;;27.12;38.58;100099.92;104113;277;97650;-57
2023/07/21 09:27:55;;;;;;;2.00;1.20;;;;;;;26.78;38.90;100099.25;104303;277;120781;-58
2023/07/21 09:30:29;;;;;;;3.50;1.00;;;;;;;26.65;39.62;100098.68;104319;276;105215;-55
2023/07/21 09:33:04;;;;;;;2.60;1.00;;;;;;;26.59;40.07;100096.06;104297;277;113912;-55
2023/07/21 09:35:40;;;;;;;2.50;1.10;;;;;;;27.00;41.19;100093.70;104306;276;93101;-53
2023/07/21 09:38:17;;;;;;;2.90;1.20;;;;;;;27.58;40.72;100090.33;104302;277;97158;-54
2023/07/21 09:40:51;;;;;;;3.00;1.00;;;;;;;27.87;40.16;100092.00;104088;277;120717;-56
2023/07/21 09:43:26;;;;;;;2.70;1.00;;;;;;;27.93;40.10;100093.30;104291;277;105614;-56
2023/07/21 09:46:02;;;;;;;1.40;1.00;;;;;;;28.13;39.74;100084.21;104773;277;114211;-58
2023/07/21 09:48:38;;;;;;;1.80;1.10;;;;;;;28.35;39.11;100077.73;104301;276;93517;-58
2023/07/21 09:51:12;;;;;;;3.20;1.00;;;;;;;28.44;38.31;100079.71;104339;277;98504;-54
2023/07/21 09:53:50;;;;;;;3.70;0.90;;;;;;;28.67;38.57;100078.16;104731;276;120044;-54
2023/07/21 09:56:29;;;;;;;1.30;1.00;;;;;;;28.83;37.76;100076.34;104769;276;104262;-58
2023/07/21 09:59:11;;;;;;;3.30;1.10;;;;;;;28.47;37.48;100082.23;104770;277;114290;-57
2023/07/21 10:01:46;;;;;;;2.80;1.00;;;;;;;27.92;37.94;100081.40;104340;277;93581;-56
2023/07/21 10:04:23;;;;;;;1.70;0.80;;;;;;;27.99;38.50;100078.80;104369;276;95333;-56
2023/07/21 10:06:58;;;;;;;2.60;1.30;;;;;;;28.21;38.61;100073.58;104313;277;120838;-55
2023/07/21 10:09:36;;;;;;;2.80;1.00;;;;;;;28.46;38.54;100070.20;104349;277;105675;-55
2023/07/21 10:12:19;;;;;;;2.50;0.90;;;;;;;28.60;37.85;100070.62;104309;277;114026;-58
2023/07/21 10:14:56;;;;;;;1.50;1.00;;;;;;;28.71;37.33;100065.15;104133;276;94717;-54
2023/07/21 10:17:56;;;;;;;1.60;1.10;;;;;;;28.58;36.53;100064.46;104294;276;97200;-54
2023/07/21 10:20:48;;;;;;;1.80;1.10;;;;;;;28.57;37.12;100063.20;104305;277;121309;-56
2023/07/21 10:23:27;;;;;;;3.10;1.00;;;;;;;28.63;35.94;100057.26;104307;276;104616;-56
2023/07/21 10:26:07;;;;;;;1.80;0.90;;;;;;;28.70;36.21;100057.16;104289;276;114930;-54
2023/07/21 10:28:46;;;;;;;1.10;0.80;;;;;;;28.90;36.49;100057.97;104279;276;94155;-54
2023/07/21 10:31:38;;;;;;;1.60;1.00;;;;;;;28.71;35.48;100056.96;104319;276;97049;-56
2023/07/21 10:34:17;;;;;;;0.90;0.80;;;;;;;28.42;35.55;100053.52;104292;277;121305;-56
2023/07/21 10:37:02;;;;;;;1.20;0.90;;;;;;;28.10;35.63;100055.22;104311;276;106440;-58
2023/07/21 10:39:42;;;;;;;1.70;1.00;;;;;;;27.85;36.00;100049.45;104318;276;114871;-58
2023/07/21 10:42:17;;;;;;;2.00;0.90;;;;;;;28.09;36.07;100053.30;104313;276;94661;-55
2023/07/21 10:44:51;;;;;;;1.70;1.10;;;;;;;28.40;35.72;100051.72;104326;277;98690;-54
2023/07/21 10:47:26;;;;;;;1.50;1.10;;;;;;;28.62;35.43;100042.02;104716;276;119402;-54
2023/07/21 10:50:00;;;;;;;1.60;0.90;;;;;;;28.79;35.11;100039.30;104319;276;105143;-53
2023/07/21 10:52:34;;;;;;;1.30;0.90;;;;;;;28.90;35.41;100039.79;104259;276;114670;-53
2023/07/21 10:55:09;;;;;;;2.50;0.90;;;;;;;28.98;34.79;100038.24;104779;277;94195;-57
2023/07/21 10:57:43;;;;;;;2.20;1.10;;;;;;;28.99;34.21;100031.41;104357;276;96319;-57
2023/07/21 11:00:19;;;;;;;2.30;0.80;;;;;;;29.10;34.31;100022.99;104334;276;120198;-53
2023/07/21 11:02:58;;;;;;;1.60;1.00;;;;;;;29.21;34.29;100023.95;104343;276;106284;-53
2023/07/21 11:05:41;;;;;;;3.20;0.90;;;;;;;29.33;34.61;100028.48;104305;276;113760;-57
2023/07/21 11:08:29;;;;;;;1.40;1.10;;;;;;;28.77;33.67;100036.30;104797;276;94277;-57
2023/07/21 11:11:03;;;;;;;1.70;0.80;;;;;;;28.20;34.31;100043.05;104787;276;97258;-53
2023/07/21 11:13:38;;;;;;;3.20;0.90;;;;;;;27.82;34.54;100042.17;104735;277;120328;-56
2023/07/21 11:16:13;;;;;;;2.20;1.10;;;;;;;27.71;34.95;100038.73;104324;277;105297;-53
2023/07/21 11:18:47;;;;;;;1.40;0.90;;;;;;;27.89;35.35;100031.09;104740;277;114465;-53
2023/07/21 11:21:20;;;;;;;1.30;0.80;;;;;;;28.05;35.38;100032.56;104745;277;95415;-57
2023/07/21 11:24:03;;;;;;;1.30;1.00;;;;;;;27.76;35.66;100032.33;104331;277;96712;-57
2023/07/21 11:26:37;;;;;;;2.30;1.00;;;;;;;27.36;35.31;100031.60;104302;277;119846;-55
2023/07/21 11:29:11;;;;;;;2.30;0.90;;;;;;;26.92;35.39;100026.48;104129;277;106236;-55
2023/07/21 11:31:46;;;;;;;4.40;1.30;;;;;;;26.62;36.24;100028.33;104277;277;115137;-55
2023/07/21 11:34:25;;;;;;;1.10;0.80;;;;;;;26.34;36.39;100026.54;104275;277;94699;-55
2023/07/21 11:37:01;;;;;;;4.10;1.20;;;;;;;26.12;36.46;100025.67;104308;277;98486;-55
2023/07/21 11:39:36;;;;;;;1.90;1.00;;;;;;;26.01;36.67;100027.31;104313;277;120212;-69
2023/07/21 11:42:11;;;;;;;2.60;1.20;;;;;;;26.11;36.98;100023.19;104790;277;105046;-68
2023/07/21 11:44:45;;;;;;;1.60;0.90;;;;;;;26.54;37.05;100020.44;104089;278;113352;-55
2023/07/21 11:47:20;;;;;;;1.80;1.20;;;;;;;26.64;36.43;100021.41;104325;277;94948;-64
2023/07/21 11:49:57;;;;;;;2.10;1.00;;;;;;;26.53;35.73;100019.46;104805;277;96904;-63
2023/07/21 11:52:33;;;;;;;2.70;1.00;;;;;;;26.38;36.63;100019.11;104785;277;121551;-64
2023/07/21 11:55:09;;;;;;;1.70;1.00;;;;;;;26.22;36.95;100022.19;104786;277;104471;-64
2023/07/21 11:57:43;;;;;;;1.80;0.90;;;;;;;26.12;36.78;100026.05;104285;277;113549;-63
2023/07/21 12:00:24;;;;;;;1.80;1.00;;;;;;;26.03;37.16;100028.35;104292;277;94454;-63